Pan Margaret — 3FFH3 — position and weather

sailwx.info

Track history (hours):
 
Tides and Currents Weather Stations Pressure Air Temp Water Temp Dewpoint Dewpoint Depression Visibility Wind Speed Wind Dir Waves Ship Positions

Pan Margaret

Last reported at 2018-Jul-13 19:20 UTC. Time now 2018-Jul-19 00:03 UTC.
Position N 27°10' W 016°36'.

Length 292 m; draft 10.6 m.

Type: Cargo ship. MMSI: 353267000.

Date/timePositionNaut miles runAvg speedWind from/ knotsBaromVisibWave heightAir tempDewpointWater temp
2018-Jul-13 19:20N 27°10' W 016°36'3312.6
2018-Jul-13 16:44N 27°41' W 016°26'312.7
2018-Jul-13 16:30N 27°44' W 016°25'712.9
2018-Jul-13 15:57N 27°51' W 016°23'713.2
2018-Jul-13 15:28N 27°57' W 016°21'1213.2
2018-Jul-13 14:34N 28°07' W 016°14'113.9
2018-Jul-13 14:30N 28°08' W 016°14'1414.2
2018-Jul-13 13:30N 28°19' W 016°03'713.5
2018-Jul-13 13:00N 28°24' W 015°58'713.2
2018-Jul-13 12:30N 28°29' W 015°53'713.3
2018-Jul-13 12:00N 28°34' W 015°48'612.9
2018-Jul-13 11:30N 28°40' W 015°45'713.2
2018-Jul-13 11:00N 28°46' W 015°43'713.2
2018-Jul-13 10:30N 28°53' W 015°42'613.1
2018-Jul-13 10:00N 28°59' W 015°41'714.1
2018-Jul-13 09:29N 29°07' W 015°40'4113.8
2018-Jul-13 06:31N 29°47' W 015°32'013.5
2018-Jul-13 06:30N 29°47' W 015°32'4813.6
2018-Jul-13 03:00N 30°34' W 015°23'  
2018-Jul-10 02:39N 46°01' W 010°00'10713.3
2018-Jul-09 18:38N 47°19' W 008°14'213.3
2018-Jul-09 18:30N 47°21' W 008°13'713.5
2018-Jul-09 17:59N 47°27' W 008°09'713.6
2018-Jul-09 17:28N 47°33' W 008°05'713.5
2018-Jul-09 16:59N 47°40' W 008°01'713.5
2018-Jul-09 16:26N 47°46' W 007°57'713.5
2018-Jul-09 15:55N 47°53' W 007°54'613.6
2018-Jul-09 15:30N 47°58' W 007°52'713.9
2018-Jul-09 14:59N 48°05' W 007°48'613.4
2018-Jul-09 14:30N 48°11' W 007°46'613.0
2018-Jul-09 14:00N 48°18' W 007°42'713.4
2018-Jul-09 13:30N 48°23' W 007°36'713.1
2018-Jul-09 13:00N 48°28' W 007°30'613.0
2018-Jul-09 12:30N 48°33' W 007°25'612.3
2018-Jul-09 12:00N 48°38' W 007°18'612.3
2018-Jul-09 11:30N 48°41' W 007°11'612.7
2018-Jul-09 11:00N 48°44' W 007°02'612.5
2018-Jul-09 10:30N 48°48' W 006°55'612.2
2018-Jul-09 10:00N 48°52' W 006°47'712.9
2018-Jul-09 09:30N 48°55' W 006°39'612.9
2018-Jul-09 09:00N 48°59' W 006°31'713.0
2018-Jul-09 08:30N 49°02' W 006°22'713.4
2018-Jul-09 08:00N 49°06' W 006°14'713.3
2018-Jul-09 07:30N 49°10' W 006°05'713.7
2018-Jul-09 07:00N 49°13' W 005°57'713.9
2018-Jul-09 06:30N 49°17' W 005°48'713.8
2018-Jul-09 06:00N 49°21' W 005°39'713.9
2018-Jul-09 05:30N 49°25' W 005°30'713.7
2018-Jul-09 05:00N 49°29' W 005°21'713.9
2018-Jul-09 04:30N 49°33' W 005°13'713.8
2018-Jul-09 04:00N 49°37' W 005°04'713.0
2018-Jul-09 03:30N 49°39' W 004°55'613.1
2018-Jul-09 03:00N 49°41' W 004°45'613.0
2018-Jul-09 02:30N 49°42' W 004°35'713.0
2018-Jul-09 02:00N 49°44' W 004°25'613.0
2018-Jul-09 01:30N 49°46' W 004°16'613.0
2018-Jul-09 01:00N 49°47' W 004°06'712.9
2018-Jul-09 00:30N 49°49' W 003°56'612.8
2018-Jul-09 00:00N 49°51' W 003°47'713.1
2018-Jul-08 23:30N 49°52' W 003°37'713.6
2018-Jul-08 23:00N 49°53' W 003°27'713.9
2018-Jul-08 22:30N 49°55' W 003°16'714.4
2018-Jul-08 22:01N 49°58' W 003°06'714.6
2018-Jul-08 21:30N 50°00' W 002°55'714.4
2018-Jul-08 21:00N 50°02' W 002°44'714.5
2018-Jul-08 20:30N 50°04' W 002°33'1214.3
2018-Jul-08 19:41N 50°06' W 002°15'314.2
2018-Jul-08 19:30N 50°06' W 002°11'813.9
2018-Jul-08 18:57N 50°08' W 001°60'613.2
2018-Jul-08 18:30N 50°10' W 001°51'712.6
2018-Jul-08 17:56N 50°13' W 001°40'512.1
2018-Jul-08 17:30N 50°14' W 001°33'611.7
2018-Jul-08 17:00N 50°16' W 001°24'611.4
2018-Jul-08 16:30N 50°17' W 001°15'611.1
2018-Jul-08 15:58N 50°18' W 001°06'510.9
2018-Jul-08 15:30N 50°20' W 000°59'611.4
2018-Jul-08 15:00N 50°21' W 000°50'611.7
2018-Jul-08 14:30N 50°23' W 000°41'612.1
2018-Jul-08 14:00N 50°25' W 000°32'612.7
2018-Jul-08 13:30N 50°26' W 000°22'713.3
2018-Jul-08 13:00N 50°28' W 000°12'713.8
2018-Jul-08 12:31N 50°30' W 000°02'714.1
2018-Jul-08 12:01N 50°32' E 000°09'714.3
2018-Jul-08 11:30N 50°34' E 000°20'714.5
2018-Jul-08 11:01N 50°36' E 000°31'714.5
2018-Jul-08 10:31N 50°39' E 000°41'714.3
2018-Jul-08 10:01N 50°43' E 000°50'713.9
2018-Jul-08 09:30N 50°46' E 001°00'713.5
2018-Jul-08 09:00N 50°50' E 001°09'612.8
2018-Jul-08 08:30N 50°54' E 001°17'612.2
2018-Jul-08 08:00N 50°59' E 001°23'611.4
2018-Jul-08 07:30N 51°03' E 001°29'510.8
2018-Jul-08 07:00N 51°06' E 001°36'611.1
2018-Jul-08 06:30N 51°10' E 001°41'612.0
2018-Jul-08 06:00N 51°15' E 001°48'612.8
2018-Jul-08 05:30N 51°21' E 001°52'611.9
2018-Jul-08 05:00N 51°25' E 001°59'612.9
2018-Jul-08 04:30N 51°23' E 002°09'612.8
2018-Jul-08 04:00N 51°20' E 002°18'714.4
2018-Jul-08 03:31N 51°23' E 002°29'714.2
2018-Jul-08 03:00N 51°23' E 002°41'612.1
2018-Jul-08 02:30N 51°25' E 002°50'714.7
2018-Jul-08 02:01N 51°25' E 003°01'714.7
2018-Jul-08 01:30N 51°25' E 003°13'815.3
2018-Jul-08 01:01N 51°25' E 003°25'815.5
2018-Jul-08 00:30N 51°26' E 003°38'3 5.5
2018-Jul-08 00:00N 51°27' E 003°42'1 1.5
2018-Jul-07 23:30N 51°27' E 003°42'0 0.0
2018-Jul-07 22:58N 51°27' E 003°42'0 0.0
2018-Jul-07 22:28N 51°27' E 003°42'0 0.0
2018-Jul-07 21:59N 51°27' E 003°42'0 0.0
2018-Jul-07 21:28N 51°27' E 003°42'0 0.0
2018-Jul-07 20:58N 51°27' E 003°42'0 0.0
2018-Jul-07 20:29N 51°27' E 003°42'0 0.0
2018-Jul-07 19:58N 51°27' E 003°42'0 0.0
2018-Jul-07 19:28N 51°27' E 003°42'0 0.0
2018-Jul-07 18:58N 51°27' E 003°42'0 0.0
2018-Jul-07 18:28N 51°27' E 003°42'0 0.0
2018-Jul-07 17:59N 51°27' E 003°42'0 0.0
2018-Jul-07 17:28N 51°27' E 003°42'0 0.0
2018-Jul-07 16:59N 51°27' E 003°42'0 0.0
2018-Jul-07 16:28N 51°27' E 003°42'0 0.0
2018-Jul-07 15:58N 51°27' E 003°42'0 0.0
2018-Jul-07 15:28N 51°27' E 003°42'0 0.0
2018-Jul-07 14:59N 51°27' E 003°42'0 0.0
2018-Jul-07 14:28N 51°27' E 003°42'0 0.0
2018-Jul-07 13:59N 51°27' E 003°42'0 0.0
2018-Jul-07 13:28N 51°27' E 003°42'0 0.0
2018-Jul-07 12:58N 51°27' E 003°42'0 0.0
2018-Jul-07 12:28N 51°27' E 003°42'0 0.0
2018-Jul-07 11:58N 51°27' E 003°42'0 0.0
2018-Jul-07 11:28N 51°27' E 003°42'0 0.0
2018-Jul-07 10:58N 51°27' E 003°42'0 0.0
2018-Jul-07 10:28N 51°27' E 003°42'0 0.0
2018-Jul-07 09:58N 51°27' E 003°42'0 0.0
2018-Jul-07 09:28N 51°27' E 003°42'0 0.0
2018-Jul-07 08:58N 51°27' E 003°42'0 0.0
2018-Jul-07 08:28N 51°27' E 003°42'0 0.0
2018-Jul-07 07:58N 51°27' E 003°42'0 0.0
2018-Jul-07 07:28N 51°27' E 003°42'0 0.0
2018-Jul-07 06:58N 51°27' E 003°42'0 0.0
2018-Jul-07 06:28N 51°27' E 003°42'0 0.0
2018-Jul-07 05:58N 51°27' E 003°42'0 0.0
2018-Jul-07 05:29N 51°27' E 003°42'0 0.0
2018-Jul-07 04:58N 51°27' E 003°42'0 0.0
2018-Jul-07 04:28N 51°27' E 003°42'0 0.0
2018-Jul-07 03:58N 51°27' E 003°42'0 0.0
2018-Jul-07 03:28N 51°27' E 003°42'0 0.0
2018-Jul-07 02:58N 51°27' E 003°42'0 0.0
2018-Jul-07 02:28N 51°27' E 003°42'0 0.0
2018-Jul-07 01:58N 51°27' E 003°42'0 0.0
2018-Jul-07 01:28N 51°27' E 003°42'0 0.0
2018-Jul-07 00:58N 51°27' E 003°42'0 0.0
2018-Jul-07 00:28N 51°27' E 003°42'0 0.0
2018-Jul-06 23:58N 51°27' E 003°42'0 0.0
2018-Jul-06 23:28N 51°27' E 003°42'0 0.0
2018-Jul-06 22:58N 51°27' E 003°42'0 0.0
2018-Jul-06 22:28N 51°27' E 003°42'0 0.0
2018-Jul-06 21:58N 51°27' E 003°42'0 0.0
2018-Jul-06 21:28N 51°27' E 003°42'0 0.0
2018-Jul-06 20:58N 51°27' E 003°42'0 0.0
2018-Jul-06 20:25N 51°27' E 003°42'0 0.0
2018-Jul-06 19:58N 51°27' E 003°42'0 0.0
2018-Jul-06 19:28N 51°27' E 003°42'0 0.0
2018-Jul-06 18:58N 51°27' E 003°42'0 0.0
2018-Jul-06 18:28N 51°27' E 003°42'0 0.0
2018-Jul-06 17:58N 51°27' E 003°42'0 0.0
2018-Jul-06 17:28N 51°27' E 003°42'0 0.0
2018-Jul-06 16:58N 51°27' E 003°42'0 0.0
2018-Jul-06 16:29N 51°27' E 003°42'0 0.0
2018-Jul-06 15:58N 51°27' E 003°42'0 0.0
2018-Jul-06 15:28N 51°27' E 003°42'0 0.0
2018-Jul-06 14:59N 51°27' E 003°42'0 0.0
2018-Jul-06 14:28N 51°27' E 003°42'0 0.0
2018-Jul-06 13:58N 51°27' E 003°42'0 0.0
2018-Jul-06 13:28N 51°27' E 003°42'0 0.0
2018-Jul-06 12:58N 51°27' E 003°42'0 0.0
2018-Jul-06 12:29N 51°27' E 003°42'0 0.0
2018-Jul-06 11:58N 51°27' E 003°42'0 0.0
2018-Jul-06 11:29N 51°27' E 003°42'0 0.0
2018-Jul-06 10:58N 51°27' E 003°42'0 0.0
2018-Jul-06 10:28N 51°27' E 003°42'0 0.0
2018-Jul-06 09:58N 51°27' E 003°42'0 0.0
2018-Jul-06 09:29N 51°27' E 003°42'0 0.0
2018-Jul-06 08:59N 51°27' E 003°42'0 0.0
2018-Jul-06 08:28N 51°27' E 003°42'0 0.0
2018-Jul-06 07:58N 51°27' E 003°42'0 0.0
2018-Jul-06 07:28N 51°27' E 003°42'0 0.0
2018-Jul-06 06:58N 51°27' E 003°42'0 0.0
2018-Jul-06 06:28N 51°27' E 003°42'0 0.0
2018-Jul-06 05:59N 51°27' E 003°42'0 0.0
2018-Jul-06 05:28N 51°27' E 003°42'0 0.0
2018-Jul-06 04:58N 51°27' E 003°42'0 0.0
2018-Jul-06 04:28N 51°27' E 003°42'0 0.0
2018-Jul-06 03:58N 51°27' E 003°42'0 0.0
2018-Jul-06 03:25N 51°27' E 003°42'0 0.0
2018-Jul-06 02:58N 51°27' E 003°42'0 0.0
2018-Jul-06 02:28N 51°27' E 003°42'0 0.0
2018-Jul-06 01:58N 51°27' E 003°42'0 0.0
2018-Jul-06 01:28N 51°27' E 003°42'0 0.0
2018-Jul-06 00:58N 51°27' E 003°42'0 0.0
2018-Jul-06 00:28N 51°27' E 003°42'0 0.0
2018-Jul-05 23:58N 51°27' E 003°42'0 0.0
2018-Jul-05 23:28N 51°27' E 003°42'0 0.0
2018-Jul-05 22:58N 51°27' E 003°42'0 0.0
2018-Jul-05 22:28N 51°27' E 003°42'0 0.0
2018-Jul-05 21:58N 51°27' E 003°42'0 0.0
2018-Jul-05 21:28N 51°27' E 003°42'0 0.0
2018-Jul-05 20:58N 51°27' E 003°42'0 0.0
2018-Jul-05 20:28N 51°27' E 003°42'0 0.0
2018-Jul-05 19:58N 51°27' E 003°42'0 0.0
2018-Jul-05 19:28N 51°27' E 003°42'0 0.0
2018-Jul-05 18:58N 51°27' E 003°42'0 0.0
2018-Jul-05 18:28N 51°27' E 003°42'0 0.0
2018-Jul-05 17:58N 51°27' E 003°42'0 0.0
2018-Jul-05 17:29N 51°27' E 003°42'0 0.0
2018-Jul-05 16:58N 51°27' E 003°42'0 0.0
2018-Jul-05 16:28N 51°27' E 003°42'0 0.0
2018-Jul-05 15:58N 51°27' E 003°42'0 0.0
2018-Jul-05 15:28N 51°27' E 003°42'0 0.0
2018-Jul-05 14:58N 51°27' E 003°42'0 0.0
2018-Jul-05 14:29N 51°27' E 003°42'0 0.0
2018-Jul-05 13:28N 51°27' E 003°42'0 0.0
2018-Jul-05 12:58N 51°27' E 003°42'0 0.0
2018-Jul-05 12:29N 51°27' E 003°42'0 0.0
2018-Jul-05 11:59N 51°27' E 003°42'0 0.0
2018-Jul-05 11:28N 51°27' E 003°42'0 0.0
2018-Jul-05 10:58N 51°27' E 003°42'0 0.0
2018-Jul-05 10:28N 51°27' E 003°42'0 0.0
2018-Jul-05 09:58N 51°27' E 003°42'0 0.0
2018-Jul-05 09:28N 51°27' E 003°42'0 0.0
2018-Jul-05 08:58N 51°27' E 003°42'0 0.0
2018-Jul-05 08:25N 51°27' E 003°42'0 0.0
2018-Jul-05 07:59N 51°27' E 003°42'0 0.0
2018-Jul-05 07:28N 51°27' E 003°42'0 0.0
2018-Jul-05 06:59N 51°27' E 003°42'0 0.0
2018-Jul-05 06:28N 51°27' E 003°42'0 0.0
2018-Jul-05 05:58N 51°27' E 003°42'0 0.0
2018-Jul-05 05:28N 51°27' E 003°42'0 0.0
2018-Jul-05 04:58N 51°27' E 003°42'0 0.0
2018-Jul-05 03:58N 51°27' E 003°42'0 0.0
2018-Jul-05 03:25N 51°27' E 003°42'0 0.0
2018-Jul-05 02:58N 51°27' E 003°42'0 0.0
2018-Jul-05 02:28N 51°27' E 003°42'0 0.0
2018-Jul-05 01:58N 51°27' E 003°42'0 0.0
2018-Jul-05 01:28N 51°27' E 003°42'0 0.0
2018-Jul-05 00:58N 51°27' E 003°42'0 0.0
2018-Jul-05 00:29N 51°27' E 003°42'0 0.0
2018-Jul-04 23:59N 51°27' E 003°42'0 0.0
2018-Jul-04 23:28N 51°27' E 003°42'0 0.0
2018-Jul-04 22:59N 51°27' E 003°42'0 0.0
2018-Jul-04 22:28N 51°27' E 003°42'0 0.0
2018-Jul-04 21:58N 51°27' E 003°42'0 0.0
2018-Jul-04 21:28N 51°27' E 003°42'0 0.0
2018-Jul-04 20:59N 51°27' E 003°42'0 0.0
2018-Jul-04 20:28N 51°27' E 003°42'0 0.0
2018-Jul-04 19:59N 51°27' E 003°42'0 0.0
2018-Jul-04 19:28N 51°27' E 003°42'0 0.0
2018-Jul-04 18:59N 51°27' E 003°42'0 0.0
2018-Jul-04 18:28N 51°27' E 003°42'0 0.0
2018-Jul-04 17:59N 51°27' E 003°42'0 0.0
2018-Jul-04 17:28N 51°27' E 003°42'0 0.0
2018-Jul-04 16:58N 51°27' E 003°42'0 0.0
2018-Jul-04 16:28N 51°27' E 003°42'0 0.0
2018-Jul-04 15:59N 51°27' E 003°42'0 0.0
2018-Jul-04 15:28N 51°27' E 003°42'0 0.0
2018-Jul-04 14:58N 51°27' E 003°42'0 0.0
2018-Jul-04 14:28N 51°27' E 003°42'0 0.0
2018-Jul-04 13:58N 51°27' E 003°42'0 0.0
2018-Jul-04 13:28N 51°27' E 003°42'0 0.0
2018-Jul-04 12:58N 51°27' E 003°42'0 0.0
2018-Jul-04 12:28N 51°27' E 003°42'0 0.0
2018-Jul-04 11:58N 51°27' E 003°42'0 0.0
2018-Jul-04 11:28N 51°27' E 003°42'0 0.0
2018-Jul-04 10:58N 51°27' E 003°42'0 0.0
2018-Jul-04 10:28N 51°27' E 003°42'0 0.0
2018-Jul-04 09:58N 51°27' E 003°42'0 0.0
2018-Jul-04 09:28N 51°27' E 003°42'0 0.0
2018-Jul-04 08:58N 51°27' E 003°42'0 0.0
2018-Jul-04 08:28N 51°27' E 003°42'0 0.0
2018-Jul-04 07:58N 51°27' E 003°42'0 0.0
2018-Jul-04 07:29N 51°27' E 003°42'0 0.0
2018-Jul-04 06:58N 51°27' E 003°42'0 0.0
2018-Jul-04 06:28N 51°27' E 003°42'0 0.0
2018-Jul-04 05:58N 51°27' E 003°42'0 0.0
2018-Jul-04 05:28N 51°27' E 003°42'0 0.0
2018-Jul-04 04:58N 51°27' E 003°42'0 0.0
2018-Jul-04 04:28N 51°27' E 003°42'0 0.0
2018-Jul-04 03:58N 51°27' E 003°42'0 0.0
2018-Jul-04 03:29N 51°27' E 003°42'0 0.0
2018-Jul-04 02:58N 51°27' E 003°42'0 0.0
2018-Jul-04 02:28N 51°27' E 003°42'0 0.0
2018-Jul-04 01:58N 51°27' E 003°42'0 0.0
2018-Jul-04 01:28N 51°27' E 003°42'0 0.0
2018-Jul-04 00:58N 51°27' E 003°42'0 0.0
2018-Jul-04 00:28N 51°27' E 003°42'0 0.0
2018-Jul-03 23:58N 51°27' E 003°42'0 0.0
2018-Jul-03 23:28N 51°27' E 003°42'0 0.0
2018-Jul-03 22:58N 51°27' E 003°42'0 0.0
2018-Jul-03 22:28N 51°27' E 003°42'0 0.0
2018-Jul-03 21:58N 51°27' E 003°42'0 0.0
2018-Jul-03 21:28N 51°27' E 003°42'0 0.0
2018-Jul-03 20:58N 51°27' E 003°42'0 0.0
2018-Jul-03 20:29N 51°27' E 003°42'0 0.0
2018-Jul-03 19:58N 51°27' E 003°42'0 0.0
2018-Jul-03 19:28N 51°27' E 003°42'  
Track history (hours):
 
Tides and Currents Weather Stations Pressure Air Temp Water Temp Dewpoint Dewpoint Depression Visibility Wind Speed Wind Dir Waves Ship Positions

Pan Margaret

Last reported at 2018-Jul-13 19:20 UTC. Time now 2018-Jul-19 00:03 UTC.
Position N 27°10' W 016°36'.

Length 292 m; draft 10.6 m.

Type: Cargo ship. MMSI: 353267000.

Date/timePositionNaut miles runAvg speedWind from/ knotsBaromVisibWave heightAir tempDewpointWater temp
2018-Jul-13 19:20N 27°10' W 016°36'3312.6
2018-Jul-13 16:44N 27°41' W 016°26'312.7
2018-Jul-13 16:30N 27°44' W 016°25'712.9
2018-Jul-13 15:57N 27°51' W 016°23'713.2
2018-Jul-13 15:28N 27°57' W 016°21'1213.2
2018-Jul-13 14:34N 28°07' W 016°14'113.9
2018-Jul-13 14:30N 28°08' W 016°14'1414.2
2018-Jul-13 13:30N 28°19' W 016°03'713.5
2018-Jul-13 13:00N 28°24' W 015°58'713.2
2018-Jul-13 12:30N 28°29' W 015°53'713.3
2018-Jul-13 12:00N 28°34' W 015°48'612.9
2018-Jul-13 11:30N 28°40' W 015°45'713.2
2018-Jul-13 11:00N 28°46' W 015°43'713.2
2018-Jul-13 10:30N 28°53' W 015°42'613.1
2018-Jul-13 10:00N 28°59' W 015°41'714.1
2018-Jul-13 09:29N 29°07' W 015°40'4113.8
2018-Jul-13 06:31N 29°47' W 015°32'013.5
2018-Jul-13 06:30N 29°47' W 015°32'4813.6
2018-Jul-13 03:00N 30°34' W 015°23'  
2018-Jul-10 02:39N 46°01' W 010°00'10713.3
2018-Jul-09 18:38N 47°19' W 008°14'213.3
2018-Jul-09 18:30N 47°21' W 008°13'713.5
2018-Jul-09 17:59N 47°27' W 008°09'713.6
2018-Jul-09 17:28N 47°33' W 008°05'713.5
2018-Jul-09 16:59N 47°40' W 008°01'713.5
2018-Jul-09 16:26N 47°46' W 007°57'713.5
2018-Jul-09 15:55N 47°53' W 007°54'613.6
2018-Jul-09 15:30N 47°58' W 007°52'713.9
2018-Jul-09 14:59N 48°05' W 007°48'613.4
2018-Jul-09 14:30N 48°11' W 007°46'613.0
2018-Jul-09 14:00N 48°18' W 007°42'713.4
2018-Jul-09 13:30N 48°23' W 007°36'713.1
2018-Jul-09 13:00N 48°28' W 007°30'613.0
2018-Jul-09 12:30N 48°33' W 007°25'612.3
2018-Jul-09 12:00N 48°38' W 007°18'612.3
2018-Jul-09 11:30N 48°41' W 007°11'612.7
2018-Jul-09 11:00N 48°44' W 007°02'612.5
2018-Jul-09 10:30N 48°48' W 006°55'612.2
2018-Jul-09 10:00N 48°52' W 006°47'712.9
2018-Jul-09 09:30N 48°55' W 006°39'612.9
2018-Jul-09 09:00N 48°59' W 006°31'713.0
2018-Jul-09 08:30N 49°02' W 006°22'713.4
2018-Jul-09 08:00N 49°06' W 006°14'713.3
2018-Jul-09 07:30N 49°10' W 006°05'713.7
2018-Jul-09 07:00N 49°13' W 005°57'713.9
2018-Jul-09 06:30N 49°17' W 005°48'713.8
2018-Jul-09 06:00N 49°21' W 005°39'713.9
2018-Jul-09 05:30N 49°25' W 005°30'713.7
2018-Jul-09 05:00N 49°29' W 005°21'713.9
2018-Jul-09 04:30N 49°33' W 005°13'713.8
2018-Jul-09 04:00N 49°37' W 005°04'713.0
2018-Jul-09 03:30N 49°39' W 004°55'613.1
2018-Jul-09 03:00N 49°41' W 004°45'613.0
2018-Jul-09 02:30N 49°42' W 004°35'713.0
2018-Jul-09 02:00N 49°44' W 004°25'613.0
2018-Jul-09 01:30N 49°46' W 004°16'613.0
2018-Jul-09 01:00N 49°47' W 004°06'712.9
2018-Jul-09 00:30N 49°49' W 003°56'612.8
2018-Jul-09 00:00N 49°51' W 003°47'713.1
2018-Jul-08 23:30N 49°52' W 003°37'713.6
2018-Jul-08 23:00N 49°53' W 003°27'713.9
2018-Jul-08 22:30N 49°55' W 003°16'714.4
2018-Jul-08 22:01N 49°58' W 003°06'714.6
2018-Jul-08 21:30N 50°00' W 002°55'714.4
2018-Jul-08 21:00N 50°02' W 002°44'714.5
2018-Jul-08 20:30N 50°04' W 002°33'1214.3
2018-Jul-08 19:41N 50°06' W 002°15'314.2
2018-Jul-08 19:30N 50°06' W 002°11'813.9
2018-Jul-08 18:57N 50°08' W 001°60'613.2
2018-Jul-08 18:30N 50°10' W 001°51'712.6
2018-Jul-08 17:56N 50°13' W 001°40'512.1
2018-Jul-08 17:30N 50°14' W 001°33'611.7
2018-Jul-08 17:00N 50°16' W 001°24'611.4
2018-Jul-08 16:30N 50°17' W 001°15'611.1
2018-Jul-08 15:58N 50°18' W 001°06'510.9
2018-Jul-08 15:30N 50°20' W 000°59'611.4
2018-Jul-08 15:00N 50°21' W 000°50'611.7
2018-Jul-08 14:30N 50°23' W 000°41'612.1
2018-Jul-08 14:00N 50°25' W 000°32'612.7
2018-Jul-08 13:30N 50°26' W 000°22'713.3
2018-Jul-08 13:00N 50°28' W 000°12'713.8
2018-Jul-08 12:31N 50°30' W 000°02'714.1
2018-Jul-08 12:01N 50°32' E 000°09'714.3
2018-Jul-08 11:30N 50°34' E 000°20'714.5
2018-Jul-08 11:01N 50°36' E 000°31'714.5
2018-Jul-08 10:31N 50°39' E 000°41'714.3
2018-Jul-08 10:01N 50°43' E 000°50'713.9
2018-Jul-08 09:30N 50°46' E 001°00'713.5
2018-Jul-08 09:00N 50°50' E 001°09'612.8
2018-Jul-08 08:30N 50°54' E 001°17'612.2
2018-Jul-08 08:00N 50°59' E 001°23'611.4
2018-Jul-08 07:30N 51°03' E 001°29'510.8
2018-Jul-08 07:00N 51°06' E 001°36'611.1
2018-Jul-08 06:30N 51°10' E 001°41'612.0
2018-Jul-08 06:00N 51°15' E 001°48'612.8
2018-Jul-08 05:30N 51°21' E 001°52'611.9
2018-Jul-08 05:00N 51°25' E 001°59'612.9
2018-Jul-08 04:30N 51°23' E 002°09'612.8
2018-Jul-08 04:00N 51°20' E 002°18'714.4
2018-Jul-08 03:31N 51°23' E 002°29'714.2
2018-Jul-08 03:00N 51°23' E 002°41'612.1
2018-Jul-08 02:30N 51°25' E 002°50'714.7
2018-Jul-08 02:01N 51°25' E 003°01'714.7
2018-Jul-08 01:30N 51°25' E 003°13'815.3
2018-Jul-08 01:01N 51°25' E 003°25'815.5
2018-Jul-08 00:30N 51°26' E 003°38'3 5.5
2018-Jul-08 00:00N 51°27' E 003°42'1 1.5
2018-Jul-07 23:30N 51°27' E 003°42'0 0.0
2018-Jul-07 22:58N 51°27' E 003°42'0 0.0
2018-Jul-07 22:28N 51°27' E 003°42'0 0.0
2018-Jul-07 21:59N 51°27' E 003°42'0 0.0
2018-Jul-07 21:28N 51°27' E 003°42'0 0.0
2018-Jul-07 20:58N 51°27' E 003°42'0 0.0
2018-Jul-07 20:29N 51°27' E 003°42'0 0.0
2018-Jul-07 19:58N 51°27' E 003°42'0 0.0
2018-Jul-07 19:28N 51°27' E 003°42'0 0.0
2018-Jul-07 18:58N 51°27' E 003°42'0 0.0
2018-Jul-07 18:28N 51°27' E 003°42'0 0.0
2018-Jul-07 17:59N 51°27' E 003°42'0 0.0
2018-Jul-07 17:28N 51°27' E 003°42'0 0.0
2018-Jul-07 16:59N 51°27' E 003°42'0 0.0
2018-Jul-07 16:28N 51°27' E 003°42'0 0.0
2018-Jul-07 15:58N 51°27' E 003°42'0 0.0
2018-Jul-07 15:28N 51°27' E 003°42'0 0.0
2018-Jul-07 14:59N 51°27' E 003°42'0 0.0
2018-Jul-07 14:28N 51°27' E 003°42'0 0.0
2018-Jul-07 13:59N 51°27' E 003°42'0 0.0
2018-Jul-07 13:28N 51°27' E 003°42'0 0.0
2018-Jul-07 12:58N 51°27' E 003°42'0 0.0
2018-Jul-07 12:28N 51°27' E 003°42'0 0.0
2018-Jul-07 11:58N 51°27' E 003°42'0 0.0
2018-Jul-07 11:28N 51°27' E 003°42'0 0.0
2018-Jul-07 10:58N 51°27' E 003°42'0 0.0
2018-Jul-07 10:28N 51°27' E 003°42'0 0.0
2018-Jul-07 09:58N 51°27' E 003°42'0 0.0
2018-Jul-07 09:28N 51°27' E 003°42'0 0.0
2018-Jul-07 08:58N 51°27' E 003°42'0 0.0
2018-Jul-07 08:28N 51°27' E 003°42'0 0.0
2018-Jul-07 07:58N 51°27' E 003°42'0 0.0
2018-Jul-07 07:28N 51°27' E 003°42'0 0.0
2018-Jul-07 06:58N 51°27' E 003°42'0 0.0
2018-Jul-07 06:28N 51°27' E 003°42'0 0.0
2018-Jul-07 05:58N 51°27' E 003°42'0 0.0
2018-Jul-07 05:29N 51°27' E 003°42'0 0.0
2018-Jul-07 04:58N 51°27' E 003°42'0 0.0
2018-Jul-07 04:28N 51°27' E 003°42'0 0.0
2018-Jul-07 03:58N 51°27' E 003°42'0 0.0
2018-Jul-07 03:28N 51°27' E 003°42'0 0.0
2018-Jul-07 02:58N 51°27' E 003°42'0 0.0
2018-Jul-07 02:28N 51°27' E 003°42'0 0.0
2018-Jul-07 01:58N 51°27' E 003°42'0 0.0
2018-Jul-07 01:28N 51°27' E 003°42'0 0.0
2018-Jul-07 00:58N 51°27' E 003°42'0 0.0
2018-Jul-07 00:28N 51°27' E 003°42'0 0.0
2018-Jul-06 23:58N 51°27' E 003°42'0 0.0
2018-Jul-06 23:28N 51°27' E 003°42'0 0.0
2018-Jul-06 22:58N 51°27' E 003°42'0 0.0
2018-Jul-06 22:28N 51°27' E 003°42'0 0.0
2018-Jul-06 21:58N 51°27' E 003°42'0 0.0
2018-Jul-06 21:28N 51°27' E 003°42'0 0.0
2018-Jul-06 20:58N 51°27' E 003°42'0 0.0
2018-Jul-06 20:25N 51°27' E 003°42'0 0.0
2018-Jul-06 19:58N 51°27' E 003°42'0 0.0
2018-Jul-06 19:28N 51°27' E 003°42'0 0.0
2018-Jul-06 18:58N 51°27' E 003°42'0 0.0
2018-Jul-06 18:28N 51°27' E 003°42'0 0.0
2018-Jul-06 17:58N 51°27' E 003°42'0 0.0
2018-Jul-06 17:28N 51°27' E 003°42'0 0.0
2018-Jul-06 16:58N 51°27' E 003°42'0 0.0
2018-Jul-06 16:29N 51°27' E 003°42'0 0.0
2018-Jul-06 15:58N 51°27' E 003°42'0 0.0
2018-Jul-06 15:28N 51°27' E 003°42'0 0.0
2018-Jul-06 14:59N 51°27' E 003°42'0 0.0
2018-Jul-06 14:28N 51°27' E 003°42'0 0.0
2018-Jul-06 13:58N 51°27' E 003°42'0 0.0
2018-Jul-06 13:28N 51°27' E 003°42'0 0.0
2018-Jul-06 12:58N 51°27' E 003°42'0 0.0
2018-Jul-06 12:29N 51°27' E 003°42'0 0.0
2018-Jul-06 11:58N 51°27' E 003°42'0 0.0
2018-Jul-06 11:29N 51°27' E 003°42'0 0.0
2018-Jul-06 10:58N 51°27' E 003°42'0 0.0
2018-Jul-06 10:28N 51°27' E 003°42'0 0.0
2018-Jul-06 09:58N 51°27' E 003°42'0 0.0
2018-Jul-06 09:29N 51°27' E 003°42'0 0.0
2018-Jul-06 08:59N 51°27' E 003°42'0 0.0
2018-Jul-06 08:28N 51°27' E 003°42'0 0.0
2018-Jul-06 07:58N 51°27' E 003°42'0 0.0
2018-Jul-06 07:28N 51°27' E 003°42'0 0.0
2018-Jul-06 06:58N 51°27' E 003°42'0 0.0
2018-Jul-06 06:28N 51°27' E 003°42'0 0.0
2018-Jul-06 05:59N 51°27' E 003°42'0 0.0
2018-Jul-06 05:28N 51°27' E 003°42'0 0.0
2018-Jul-06 04:58N 51°27' E 003°42'0 0.0
2018-Jul-06 04:28N 51°27' E 003°42'0 0.0
2018-Jul-06 03:58N 51°27' E 003°42'0 0.0
2018-Jul-06 03:25N 51°27' E 003°42'0 0.0
2018-Jul-06 02:58N 51°27' E 003°42'0 0.0
2018-Jul-06 02:28N 51°27' E 003°42'0 0.0
2018-Jul-06 01:58N 51°27' E 003°42'0 0.0
2018-Jul-06 01:28N 51°27' E 003°42'0 0.0
2018-Jul-06 00:58N 51°27' E 003°42'0 0.0
2018-Jul-06 00:28N 51°27' E 003°42'0 0.0
2018-Jul-05 23:58N 51°27' E 003°42'0 0.0
2018-Jul-05 23:28N 51°27' E 003°42'0 0.0
2018-Jul-05 22:58N 51°27' E 003°42'0 0.0
2018-Jul-05 22:28N 51°27' E 003°42'0 0.0
2018-Jul-05 21:58N 51°27' E 003°42'0 0.0
2018-Jul-05 21:28N 51°27' E 003°42'0 0.0
2018-Jul-05 20:58N 51°27' E 003°42'0 0.0
2018-Jul-05 20:28N 51°27' E 003°42'0 0.0
2018-Jul-05 19:58N 51°27' E 003°42'0 0.0
2018-Jul-05 19:28N 51°27' E 003°42'0 0.0
2018-Jul-05 18:58N 51°27' E 003°42'0 0.0
2018-Jul-05 18:28N 51°27' E 003°42'0 0.0
2018-Jul-05 17:58N 51°27' E 003°42'0 0.0
2018-Jul-05 17:29N 51°27' E 003°42'0 0.0
2018-Jul-05 16:58N 51°27' E 003°42'0 0.0
2018-Jul-05 16:28N 51°27' E 003°42'0 0.0
2018-Jul-05 15:58N 51°27' E 003°42'0 0.0
2018-Jul-05 15:28N 51°27' E 003°42'0 0.0
2018-Jul-05 14:58N 51°27' E 003°42'0 0.0
2018-Jul-05 14:29N 51°27' E 003°42'0 0.0
2018-Jul-05 13:28N 51°27' E 003°42'0 0.0
2018-Jul-05 12:58N 51°27' E 003°42'0 0.0
2018-Jul-05 12:29N 51°27' E 003°42'0 0.0
2018-Jul-05 11:59N 51°27' E 003°42'0 0.0
2018-Jul-05 11:28N 51°27' E 003°42'0 0.0
2018-Jul-05 10:58N 51°27' E 003°42'0 0.0
2018-Jul-05 10:28N 51°27' E 003°42'0 0.0
2018-Jul-05 09:58N 51°27' E 003°42'0 0.0
2018-Jul-05 09:28N 51°27' E 003°42'0 0.0
2018-Jul-05 08:58N 51°27' E 003°42'0 0.0
2018-Jul-05 08:25N 51°27' E 003°42'0 0.0
2018-Jul-05 07:59N 51°27' E 003°42'0 0.0
2018-Jul-05 07:28N 51°27' E 003°42'0 0.0
2018-Jul-05 06:59N 51°27' E 003°42'0 0.0
2018-Jul-05 06:28N 51°27' E 003°42'0 0.0
2018-Jul-05 05:58N 51°27' E 003°42'0 0.0
2018-Jul-05 05:28N 51°27' E 003°42'0 0.0
2018-Jul-05 04:58N 51°27' E 003°42'0 0.0
2018-Jul-05 03:58N 51°27' E 003°42'0 0.0
2018-Jul-05 03:25N 51°27' E 003°42'0 0.0
2018-Jul-05 02:58N 51°27' E 003°42'0 0.0
2018-Jul-05 02:28N 51°27' E 003°42'0 0.0
2018-Jul-05 01:58N 51°27' E 003°42'0 0.0
2018-Jul-05 01:28N 51°27' E 003°42'0 0.0
2018-Jul-05 00:58N 51°27' E 003°42'0 0.0
2018-Jul-05 00:29N 51°27' E 003°42'0 0.0
2018-Jul-04 23:59N 51°27' E 003°42'0 0.0
2018-Jul-04 23:28N 51°27' E 003°42'0 0.0
2018-Jul-04 22:59N 51°27' E 003°42'0 0.0
2018-Jul-04 22:28N 51°27' E 003°42'0 0.0
2018-Jul-04 21:58N 51°27' E 003°42'0 0.0
2018-Jul-04 21:28N 51°27' E 003°42'0 0.0
2018-Jul-04 20:59N 51°27' E 003°42'0 0.0
2018-Jul-04 20:28N 51°27' E 003°42'0 0.0
2018-Jul-04 19:59N 51°27' E 003°42'0 0.0
2018-Jul-04 19:28N 51°27' E 003°42'0 0.0
2018-Jul-04 18:59N 51°27' E 003°42'0 0.0
2018-Jul-04 18:28N 51°27' E 003°42'0 0.0
2018-Jul-04 17:59N 51°27' E 003°42'0 0.0
2018-Jul-04 17:28N 51°27' E 003°42'0 0.0
2018-Jul-04 16:58N 51°27' E 003°42'0 0.0
2018-Jul-04 16:28N 51°27' E 003°42'0 0.0
2018-Jul-04 15:59N 51°27' E 003°42'0 0.0
2018-Jul-04 15:28N 51°27' E 003°42'0 0.0
2018-Jul-04 14:58N 51°27' E 003°42'0 0.0
2018-Jul-04 14:28N 51°27' E 003°42'0 0.0
2018-Jul-04 13:58N 51°27' E 003°42'0 0.0
2018-Jul-04 13:28N 51°27' E 003°42'0 0.0
2018-Jul-04 12:58N 51°27' E 003°42'0 0.0
2018-Jul-04 12:28N 51°27' E 003°42'0 0.0
2018-Jul-04 11:58N 51°27' E 003°42'0 0.0
2018-Jul-04 11:28N 51°27' E 003°42'0 0.0
2018-Jul-04 10:58N 51°27' E 003°42'0 0.0
2018-Jul-04 10:28N 51°27' E 003°42'0 0.0
2018-Jul-04 09:58N 51°27' E 003°42'0 0.0
2018-Jul-04 09:28N 51°27' E 003°42'0 0.0
2018-Jul-04 08:58N 51°27' E 003°42'0 0.0
2018-Jul-04 08:28N 51°27' E 003°42'0 0.0
2018-Jul-04 07:58N 51°27' E 003°42'0 0.0
2018-Jul-04 07:29N 51°27' E 003°42'0 0.0
2018-Jul-04 06:58N 51°27' E 003°42'0 0.0
2018-Jul-04 06:28N 51°27' E 003°42'0 0.0
2018-Jul-04 05:58N 51°27' E 003°42'0 0.0
2018-Jul-04 05:28N 51°27' E 003°42'0 0.0
2018-Jul-04 04:58N 51°27' E 003°42'0 0.0
2018-Jul-04 04:28N 51°27' E 003°42'0 0.0
2018-Jul-04 03:58N 51°27' E 003°42'0 0.0
2018-Jul-04 03:29N 51°27' E 003°42'0 0.0
2018-Jul-04 02:58N 51°27' E 003°42'0 0.0
2018-Jul-04 02:28N 51°27' E 003°42'0 0.0
2018-Jul-04 01:58N 51°27' E 003°42'0 0.0
2018-Jul-04 01:28N 51°27' E 003°42'0 0.0
2018-Jul-04 00:58N 51°27' E 003°42'0 0.0
2018-Jul-04 00:28N 51°27' E 003°42'0 0.0
2018-Jul-03 23:58N 51°27' E 003°42'0 0.0
2018-Jul-03 23:28N 51°27' E 003°42'0 0.0
2018-Jul-03 22:58N 51°27' E 003°42'0 0.0
2018-Jul-03 22:28N 51°27' E 003°42'0 0.0
2018-Jul-03 21:58N 51°27' E 003°42'0 0.0
2018-Jul-03 21:28N 51°27' E 003°42'0 0.0
2018-Jul-03 20:58N 51°27' E 003°42'0 0.0
2018-Jul-03 20:29N 51°27' E 003°42'0 0.0
2018-Jul-03 19:58N 51°27' E 003°42'0 0.0
2018-Jul-03 19:28N 51°27' E 003°42'  

Dump ship's entire track history